Aviation Digital Data Service (ADDS)

Output produced by METARs form (1257 UTC 23 November 2014)
found at http://www.aviationweather.gov/adds/metars/
 
KSPI 231120Z 2312/2412 16013KT P6SM BKN050 WS020/22040KT 
     FM231500 15013G20KT 5SM -SHRA BR OVC007 
     FM232200 18010KT 2SM -SHRA BR OVC004 
     FM240900 26012G20KT 4SM BR VCSH OVC007